Time;durP1;ratioP1;P1;durP2;ratioP2;P2;SDS_P1;SDS_P2;PMS_P1;PMS_P2;Temp;Humidity;BMP_temperature;BMP_pressure;BME280_temperature;BME280_humidity;BME280_pressure;Samples;Min_cycle;Max_cycle;Signal;HPM_P1;HPM_P2
2022/08/18 00:01:07;;;;;;;15.75;13.20;;;;;;;23.37;64.71;100233.47;5072817;28;20032;-87
2022/08/18 00:03:36;;;;;;;16.08;13.02;;;;;;;23.34;64.36;100243.06;5034923;28;20119;-86
2022/08/18 00:06:04;;;;;;;15.68;12.35;;;;;;;23.24;64.13;100242.09;5052608;28;20028;-86
2022/08/18 00:08:30;;;;;;;17.13;13.07;;;;;;;23.24;64.00;100237.44;5089590;28;20036;-87
2022/08/18 00:10:57;;;;;;;16.30;12.38;;;;;;;23.06;64.67;100237.72;5087683;28;20047;-85
2022/08/18 00:13:22;;;;;;;19.00;12.60;;;;;;;23.05;64.97;100245.13;5060857;28;20111;-86
2022/08/18 00:15:50;;;;;;;19.30;12.80;;;;;;;23.16;64.28;100235.16;5068438;28;20181;-86
2022/08/18 00:18:17;;;;;;;15.13;12.20;;;;;;;23.00;64.74;100225.06;5063320;28;20491;-88
2022/08/18 00:20:43;;;;;;;19.40;12.73;;;;;;;23.07;64.61;100222.97;5064537;28;20071;-88
2022/08/18 00:23:09;;;;;;;18.02;11.70;;;;;;;23.15;64.28;100238.94;5064145;28;20081;-86
2022/08/18 00:25:36;;;;;;;16.83;12.10;;;;;;;23.02;64.43;100217.41;5067828;28;20353;-89
2022/08/18 00:28:04;;;;;;;16.75;12.40;;;;;;;23.16;64.62;100233.22;5063740;28;20050;-86
2022/08/18 00:30:29;;;;;;;15.98;11.60;;;;;;;23.08;64.62;100238.31;5060011;28;20040;-87
2022/08/18 00:32:58;;;;;;;13.00;11.60;;;;;;;23.01;64.17;100235.75;5045294;28;20515;-86
2022/08/18 00:35:25;;;;;;;14.68;11.60;;;;;;;23.02;64.27;100251.13;5075080;28;20136;-86
2022/08/18 00:37:52;;;;;;;13.50;11.98;;;;;;;23.06;63.97;100246.81;5060424;28;20032;-86
2022/08/18 00:40:22;;;;;;;20.88;15.25;;;;;;;23.00;64.13;100253.28;5070937;28;20497;-87
2022/08/18 00:42:54;;;;;;;24.75;18.23;;;;;;;22.93;64.35;100253.44;5087526;28;20036;-86
2022/08/18 00:45:39;;;;;;;23.17;18.15;;;;;;;22.94;64.22;100255.13;5091151;28;20028;-85
2022/08/18 00:48:07;;;;;;;34.78;17.58;;;;;;;22.83;64.52;100242.34;5081105;28;20455;-86
2022/08/18 00:50:36;;;;;;;23.95;16.83;;;;;;;22.92;64.42;100254.53;5053389;28;20117;-86
2022/08/18 00:53:27;;;;;;;25.13;16.33;;;;;;;22.97;64.77;100260.09;5085659;28;20032;-86
2022/08/18 00:55:59;;;;;;;22.52;15.93;;;;;;;23.00;64.53;100263.44;5073318;28;20063;-86
2022/08/18 00:58:38;;;;;;;27.77;16.30;;;;;;;22.82;64.29;100237.94;5070856;28;20161;-87
2022/08/18 01:01:05;;;;;;;29.55;18.83;;;;;;;22.96;64.01;100268.56;5069162;28;20130;-87
2022/08/18 01:03:32;;;;;;;30.27;19.35;;;;;;;22.97;64.08;100260.09;5074356;28;20036;-87
2022/08/18 01:06:04;;;;;;;31.27;19.58;;;;;;;22.99;63.54;100261.75;5061446;28;20087;-87
2022/08/18 01:08:32;;;;;;;24.65;18.38;;;;;;;23.07;63.36;100266.81;5091916;28;20036;-87
2022/08/18 01:11:01;;;;;;;25.40;18.17;;;;;;;23.02;63.39;100255.78;5107123;28;20109;-86
2022/08/18 01:13:30;;;;;;;25.80;18.48;;;;;;;22.82;63.21;100235.19;5067652;28;20501;-88
2022/08/18 01:15:56;;;;;;;25.35;18.77;;;;;;;22.92;62.97;100250.94;5075540;28;20040;-87
2022/08/18 01:24:05;;;;;;;26.70;18.55;;;;;;;22.66;63.48;100225.91;5071167;28;20043;-86
2022/08/18 01:26:31;;;;;;;31.73;18.80;;;;;;;22.76;62.92;100253.47;5076414;28;20159;-86
2022/08/18 01:29:03;;;;;;;26.02;17.85;;;;;;;22.60;63.14;100234.31;5064936;28;20400;-86
2022/08/18 01:31:40;;;;;;;28.80;17.63;;;;;;;22.60;63.38;100242.56;5075729;28;20057;-87
2022/08/18 01:34:08;;;;;;;24.70;17.27;;;;;;;22.65;63.20;100250.84;5051617;28;20040;-87
2022/08/18 01:36:36;;;;;;;24.35;17.50;;;;;;;22.64;63.45;100257.38;5069387;28;20029;-87
2022/08/18 01:39:04;;;;;;;25.75;16.65;;;;;;;22.47;63.72;100243.69;5056841;28;20423;-87
2022/08/18 01:41:30;;;;;;;24.17;16.90;;;;;;;22.44;63.61;100241.47;5071242;28;20107;-87
2022/08/18 01:43:57;;;;;;;21.70;15.75;;;;;;;22.66;62.92;100253.31;5073892;28;20044;-88
2022/08/18 01:46:23;;;;;;;24.58;15.45;;;;;;;22.71;62.14;100250.66;5069733;28;20072;-87
2022/08/18 01:48:49;;;;;;;23.35;15.90;;;;;;;22.62;61.92;100237.66;5070221;28;20020;-87
2022/08/18 01:51:14;;;;;;;22.55;14.27;;;;;;;22.81;61.11;100255.47;5055659;28;20050;-87
2022/08/18 01:53:40;;;;;;;26.23;16.10;;;;;;;22.77;60.58;100238.69;5085578;28;20035;-87
2022/08/18 01:56:06;;;;;;;24.30;15.18;;;;;;;22.95;60.54;100251.28;5055240;28;20171;-87
2022/08/18 01:58:32;;;;;;;21.98;13.05;;;;;;;22.93;59.06;100241.66;5059080;28;20105;-87
2022/08/18 02:01:00;;;;;;;16.13;12.80;;;;;;;23.10;58.98;100247.13;5051024;28;20483;-87
2022/08/18 02:03:36;;;;;;;20.70;13.00;;;;;;;23.10;59.24;100249.84;5081380;28;20423;-87
2022/08/18 02:06:09;;;;;;;20.10;12.93;;;;;;;23.11;58.50;100243.31;5070066;28;20075;-87
2022/08/18 02:08:37;;;;;;;19.65;13.43;;;;;;;23.10;58.72;100252.59;5055767;28;20025;-88
2022/08/18 02:11:03;;;;;;;18.60;14.15;;;;;;;23.12;59.05;100250.44;5089269;28;20033;-87
2022/08/18 02:13:29;;;;;;;18.27;14.00;;;;;;;23.08;58.59;100233.66;5061542;28;20032;-87
2022/08/18 02:15:54;;;;;;;20.50;13.48;;;;;;;23.15;58.23;100236.22;5053170;28;20051;-87
2022/08/18 02:18:26;;;;;;;20.40;13.63;;;;;;;23.23;57.90;100254.97;5057799;28;20450;-87
2022/08/18 02:20:52;;;;;;;17.25;13.27;;;;;;;23.12;58.61;100242.22;5060193;28;20032;-87
2022/08/18 02:23:18;;;;;;;18.40;13.18;;;;;;;23.25;58.25;100254.69;5055153;28;20396;-87
2022/08/18 02:25:44;;;;;;;18.40;12.80;;;;;;;23.06;59.13;100244.06;5089747;28;20043;-87
2022/08/18 02:28:11;;;;;;;20.33;13.25;;;;;;;23.12;59.30;100259.47;5063075;28;20040;-86
2022/08/18 02:30:36;;;;;;;17.02;13.02;;;;;;;22.99;59.67;100245.31;5054209;28;20032;-87
2022/08/18 02:33:06;;;;;;;14.05;11.50;;;;;;;23.00;58.62;100241.50;5055843;28;20028;-87
2022/08/18 02:35:32;;;;;;;17.63;12.88;;;;;;;23.00;59.13;100247.81;5055642;28;20093;-89
2022/08/18 02:38:04;;;;;;;15.32;12.65;;;;;;;23.12;59.30;100255.91;5056150;28;20065;-86
2022/08/18 02:40:32;;;;;;;20.63;13.15;;;;;;;23.02;59.33;100248.38;5084281;28;20052;-87
2022/08/18 02:42:58;;;;;;;19.20;12.60;;;;;;;23.15;58.80;100247.19;5070228;28;20462;-87
2022/08/18 02:45:25;;;;;;;18.60;12.63;;;;;;;23.22;58.55;100260.69;5093126;28;20015;-87
2022/08/18 02:47:52;;;;;;;15.95;13.30;;;;;;;23.20;58.13;100251.91;5105837;28;20066;-87
2022/08/18 02:50:20;;;;;;;18.02;13.05;;;;;;;23.15;58.74;100255.41;5073380;28;20040;-86
2022/08/18 02:52:46;;;;;;;15.90;13.48;;;;;;;23.13;58.52;100258.41;5091235;28;20038;-84
2022/08/18 02:55:12;;;;;;;17.27;13.80;;;;;;;23.10;58.46;100256.16;5086554;28;20032;-87
2022/08/18 02:58:07;;;;;;;17.48;12.60;;;;;;;23.12;58.17;100258.66;5101786;28;20028;-87
2022/08/18 03:00:34;;;;;;;19.08;12.73;;;;;;;23.12;58.38;100267.72;5052607;28;20034;-86
2022/08/18 03:03:02;;;;;;;17.83;13.57;;;;;;;23.11;59.11;100270.72;5087162;28;20032;-88
2022/08/18 03:05:29;;;;;;;17.23;13.40;;;;;;;23.13;58.61;100265.78;5086820;28;20055;-86
2022/08/18 03:07:56;;;;;;;14.68;13.10;;;;;;;23.00;59.07;100247.00;5086186;28;20032;-87
2022/08/18 03:10:21;;;;;;;20.25;13.55;;;;;;;23.07;59.75;100272.31;5037625;28;20050;-87
2022/08/18 03:12:48;;;;;;;19.73;13.38;;;;;;;22.96;59.90;100268.56;5049977;28;20028;-87
2022/08/18 03:15:14;;;;;;;17.33;12.82;;;;;;;22.99;59.89;100268.06;5072613;28;20062;-86
2022/08/18 03:17:40;;;;;;;18.08;13.40;;;;;;;23.06;59.85;100262.41;5072480;28;20122;-86
2022/08/18 03:20:07;;;;;;;18.02;13.13;;;;;;;23.13;59.94;100274.00;5057925;28;20032;-87
2022/08/18 03:22:32;;;;;;;16.15;13.02;;;;;;;23.14;59.39;100275.69;5071134;28;20036;-87
2022/08/18 03:24:59;;;;;;;20.20;12.93;;;;;;;23.18;59.42;100272.19;5066541;28;20035;-87
2022/08/18 03:27:24;;;;;;;18.42;12.70;;;;;;;23.08;59.68;100287.66;5064107;28;20048;-87
2022/08/18 03:29:51;;;;;;;21.33;13.32;;;;;;;23.19;59.79;100289.47;5065223;28;20052;-87
2022/08/18 03:32:17;;;;;;;21.70;12.52;;;;;;;23.14;60.23;100300.38;5079060;28;20484;-87
2022/08/18 03:34:43;;;;;;;15.98;13.10;;;;;;;23.11;59.86;100292.66;5059520;28;20523;-88
2022/08/18 03:37:10;;;;;;;16.20;13.05;;;;;;;23.19;59.19;100294.94;5047094;28;20048;-88
2022/08/18 03:39:35;;;;;;;17.73;13.23;;;;;;;23.18;58.70;100290.56;5069457;28;20047;-88
2022/08/18 03:42:01;;;;;;;19.95;13.20;;;;;;;23.23;58.03;100304.34;5048002;28;20044;-85
2022/08/18 03:44:30;;;;;;;18.00;13.77;;;;;;;23.19;57.85;100303.19;5038882;28;20089;-86
2022/08/18 03:46:56;;;;;;;20.83;13.68;;;;;;;23.11;57.83;100309.94;5053879;28;20031;-86
2022/08/18 03:49:21;;;;;;;17.85;13.25;;;;;;;23.03;57.83;100295.81;5088987;28;20048;-88
2022/08/18 03:51:50;;;;;;;24.13;13.57;;;;;;;23.14;57.42;100314.91;5067310;28;20032;-87
2022/08/18 03:54:16;;;;;;;17.85;13.00;;;;;;;23.06;57.32;100287.94;5078809;28;20040;-87
2022/08/18 03:56:42;;;;;;;18.92;13.73;;;;;;;23.29;56.68;100311.53;5067324;28;20166;-87
2022/08/18 03:59:16;;;;;;;23.77;13.20;;;;;;;23.33;56.88;100317.34;5049098;28;20020;-87
2022/08/18 04:01:42;;;;;;;19.70;13.67;;;;;;;23.29;57.11;100307.97;5062549;28;20063;-87
2022/08/18 04:04:10;;;;;;;26.42;13.93;;;;;;;23.35;57.10;100318.75;5053728;28;20143;-87
2022/08/18 04:06:40;;;;;;;24.65;15.77;;;;;;;23.34;56.29;100308.03;5087977;28;20070;-87
2022/08/18 04:09:09;;;;;;;29.23;17.67;;;;;;;23.43;56.13;100324.88;5095021;28;20027;-85
2022/08/18 04:11:36;;;;;;;23.33;18.02;;;;;;;23.44;56.30;100335.63;5074527;28;20054;-87
2022/08/18 04:14:05;;;;;;;29.08;18.10;;;;;;;23.44;56.14;100338.34;5071956;28;20111;-87
2022/08/18 04:16:32;;;;;;;27.33;17.98;;;;;;;23.36;56.30;100333.28;5040573;28;20043;-87
2022/08/18 04:19:03;;;;;;;29.60;17.85;;;;;;;23.54;56.21;100343.13;5070908;28;20028;-87
2022/08/18 04:21:32;;;;;;;28.75;18.13;;;;;;;23.52;56.12;100335.16;5072451;28;20476;-87
2022/08/18 04:24:03;;;;;;;28.80;16.95;;;;;;;23.52;56.41;100342.56;5071624;28;20468;-87
2022/08/18 04:26:44;;;;;;;25.67;17.52;;;;;;;23.58;56.48;100342.38;5065650;28;20157;-87
2022/08/18 04:29:13;;;;;;;28.02;16.77;;;;;;;23.77;57.01;100355.81;5064710;28;20121;-88
2022/08/18 04:31:41;;;;;;;35.33;17.20;;;;;;;23.76;57.02;100343.16;5051276;28;20546;-88
2022/08/18 04:34:09;;;;;;;27.95;15.85;;;;;;;23.60;57.60;100350.38;5078380;28;20063;-87
2022/08/18 04:36:36;;;;;;;26.20;15.35;;;;;;;23.72;57.31;100353.81;5064910;28;20039;-86
2022/08/18 04:39:04;;;;;;;24.52;15.77;;;;;;;23.81;57.05;100365.16;5080785;28;20021;-87
2022/08/18 04:41:29;;;;;;;21.73;14.57;;;;;;;23.88;56.62;100345.78;5056021;28;20052;-88
2022/08/18 04:43:59;;;;;;;35.83;24.15;;;;;;;23.98;57.06;100357.72;5048602;28;20050;-88
2022/08/18 04:46:26;;;;;;;24.08;15.05;;;;;;;24.10;56.64;100363.06;5052439;28;20492;-87
2022/08/18 04:48:57;;;;;;;24.38;14.57;;;;;;;24.10;56.66;100351.25;5059847;28;20477;-87
2022/08/18 04:51:23;;;;;;;23.52;13.98;;;;;;;24.10;57.04;100354.81;5066336;28;20050;-88
2022/08/18 04:53:49;;;;;;;20.42;14.75;;;;;;;24.00;57.62;100371.19;5079692;28;20048;-87
2022/08/18 04:56:27;;;;;;;31.40;14.52;;;;;;;23.97;57.34;100346.97;5067699;28;20040;-87
2022/08/18 04:59:10;;;;;;;19.85;14.23;;;;;;;24.15;58.25;100376.00;5071992;28;20054;-88
2022/08/18 05:01:47;;;;;;;19.83;13.85;;;;;;;24.10;57.68;100368.53;5056437;28;20032;-88
2022/08/18 05:04:16;;;;;;;25.65;15.85;;;;;;;24.09;59.05;100375.16;5056491;28;20499;-88
2022/08/18 05:06:43;;;;;;;29.60;16.45;;;;;;;24.15;58.89;100382.34;5065607;28;20032;-87
2022/08/18 05:09:11;;;;;;;26.30;16.33;;;;;;;24.29;58.83;100370.94;5061908;28;20037;-91
2022/08/18 05:11:37;;;;;;;29.08;19.30;;;;;;;24.28;58.84;100388.50;5082602;28;20044;-90
2022/08/18 05:14:10;;;;;;;31.88;20.33;;;;;;;24.46;58.14;100371.66;5073056;28;20070;-88
2022/08/18 05:16:38;;;;;;;27.13;18.85;;;;;;;24.88;57.22;100387.44;5078114;28;20024;-87
2022/08/18 05:19:10;;;;;;;33.08;20.40;;;;;;;24.74;57.45;100387.06;5049258;28;20063;-90
2022/08/18 05:21:35;;;;;;;32.20;20.85;;;;;;;24.92;56.24;100382.25;5067224;28;20044;-89
2022/08/18 05:24:07;;;;;;;30.65;20.92;;;;;;;25.20;55.71;100394.88;5061426;28;20101;-90
2022/08/18 05:26:33;;;;;;;27.27;21.20;;;;;;;25.21;54.22;100364.34;5065384;28;20079;-91
2022/08/18 05:28:59;;;;;;;28.95;20.75;;;;;;;25.51;54.13;100371.13;5065498;28;20604;-88
2022/08/18 05:31:26;;;;;;;27.15;19.48;;;;;;;25.91;52.96;100366.91;5046088;28;20055;-91
2022/08/18 05:33:56;;;;;;;28.83;17.52;;;;;;;26.27;51.84;100369.75;5049363;28;20032;-91
2022/08/18 05:36:45;;;;;;;23.90;17.17;;;;;;;26.82;50.76;100389.44;5058302;28;20085;-89
2022/08/18 05:39:16;;;;;;;24.02;16.23;;;;;;;27.19;49.99;100385.56;5086691;28;20035;-89
2022/08/18 05:42:17;;;;;;;24.23;15.73;;;;;;;27.64;48.97;100375.53;5089672;28;20097;-90
2022/08/18 05:44:49;;;;;;;32.35;16.00;;;;;;;27.96;48.19;100378.72;5058299;28;20048;-90
2022/08/18 05:47:29;;;;;;;25.40;15.15;;;;;;;28.31;47.15;100376.06;5066776;28;20047;-90
2022/08/18 05:50:06;;;;;;;33.53;14.45;;;;;;;28.58;46.53;100364.56;5068462;28;20143;-90
2022/08/18 05:52:53;;;;;;;26.73;13.40;;;;;;;28.99;44.81;100378.06;5045973;28;20054;-90
2022/08/18 05:58:38;;;;;;;22.13;12.68;;;;;;;29.45;44.30;100380.38;5082920;28;20043;-92
2022/08/18 06:01:25;;;;;;;24.08;12.20;;;;;;;29.78;43.19;100381.41;5071610;28;20121;-91
2022/08/18 06:03:59;;;;;;;23.05;11.75;;;;;;;29.87;42.70;100362.16;5095543;28;20042;-90
2022/08/18 06:06:30;;;;;;;29.73;12.13;;;;;;;30.24;42.48;100371.63;5082812;28;20058;-86
2022/08/18 06:09:25;;;;;;;25.40;12.25;;;;;;;30.62;41.55;100374.41;5075712;28;20516;-88
2022/08/18 06:11:52;;;;;;;21.92;11.30;;;;;;;30.82;40.47;100368.53;5110026;28;20020;-90
2022/08/18 06:14:19;;;;;;;19.20;10.65;;;;;;;31.08;40.17;100387.53;5062853;28;20144;-84
2022/08/18 06:16:59;;;;;;;21.17;10.82;;;;;;;31.38;39.95;100379.78;5072083;28;20146;-85
2022/08/18 06:19:43;;;;;;;22.20;11.27;;;;;;;31.59;39.03;100375.50;5059719;28;20162;-87
2022/08/18 06:22:35;;;;;;;18.92;10.13;;;;;;;31.74;38.76;100374.34;5081708;28;20028;-88
2022/08/18 06:25:15;;;;;;;16.10;10.88;;;;;;;32.13;37.92;100384.94;5059175;28;20036;-87
2022/08/18 06:28:17;;;;;;;18.90;11.25;;;;;;;32.27;37.13;100372.97;5074803;28;20055;-86
2022/08/18 06:31:22;;;;;;;26.33;10.57;;;;;;;32.83;36.53;100373.56;5071131;28;20036;-86
2022/08/18 06:34:11;;;;;;;18.60;9.55;;;;;;;33.10;36.15;100383.75;4978042;28;20081;-87
2022/08/18 06:36:59;;;;;;;11.18;8.88;;;;;;;33.05;36.09;100383.88;5060835;28;20051;-91
2022/08/18 06:39:35;;;;;;;26.13;10.15;;;;;;;32.96;36.30;100383.81;5052121;28;20132;-90
2022/08/18 06:42:07;;;;;;;20.88;9.65;;;;;;;33.10;36.08;100379.00;5060802;28;20055;-89
2022/08/18 06:44:48;;;;;;;16.65;9.27;;;;;;;33.25;35.38;100386.13;5094876;28;20040;-89
2022/08/18 06:47:32;;;;;;;17.80;9.82;;;;;;;33.54;34.56;100388.38;5057068;28;20109;-89
2022/08/18 06:50:15;;;;;;;14.15;9.32;;;;;;;33.45;34.59;100362.44;5091967;28;20040;-91
2022/08/18 06:52:58;;;;;;;16.25;9.43;;;;;;;33.76;34.53;100390.31;5044235;28;20043;-86
2022/08/18 06:55:41;;;;;;;15.40;8.73;;;;;;;33.87;33.99;100385.22;5068696;28;20040;-89
2022/08/18 06:58:19;;;;;;;16.20;9.10;;;;;;;34.04;33.86;100387.22;5055419;28;20416;-90
2022/08/18 07:00:51;;;;;;;19.42;9.57;;;;;;;33.99;34.28;100388.22;5094377;28;20032;-87
2022/08/18 07:03:19;;;;;;;15.07;8.60;;;;;;;34.19;33.68;100386.81;5092878;28;20024;-88
2022/08/18 07:06:05;;;;;;;13.90;8.65;;;;;;;34.13;33.45;100382.50;5075814;28;20103;-87
2022/08/18 07:08:40;;;;;;;13.38;8.70;;;;;;;34.16;33.64;100370.72;5098601;28;20892;-90
2022/08/18 07:11:16;;;;;;;15.07;9.40;;;;;;;34.55;33.18;100385.66;5079660;28;20476;-87
2022/08/18 07:13:43;;;;;;;11.30;8.80;;;;;;;34.65;32.88;100392.91;5052816;28;20045;-87
2022/08/18 07:16:31;;;;;;;11.55;8.43;;;;;;;34.29;33.29;100390.41;5055853;28;20450;-88
2022/08/18 07:19:30;;;;;;;15.95;9.77;;;;;;;34.18;34.45;100390.72;5076723;28;20031;-88
2022/08/18 07:22:10;;;;;;;15.70;9.52;;;;;;;34.07;34.36;100383.81;5064902;28;20059;-88
2022/08/18 07:24:47;;;;;;;22.33;9.20;;;;;;;34.20;34.43;100401.56;5073747;28;20418;-87
2022/08/18 07:27:16;;;;;;;15.73;9.38;;;;;;;34.14;34.57;100400.91;5060195;28;20040;-87
2022/08/18 07:30:04;;;;;;;18.42;8.80;;;;;;;34.62;33.60;100402.75;5103041;28;20126;-87
2022/08/18 07:32:50;;;;;;;16.10;8.88;;;;;;;34.37;33.92;100392.38;5111131;28;20031;-87
2022/08/18 07:35:43;;;;;;;14.23;9.38;;;;;;;34.25;33.96;100396.66;5057555;28;20069;-89
2022/08/18 07:38:28;;;;;;;12.90;8.25;;;;;;;34.65;34.05;100399.31;5067343;28;20052;-88
2022/08/18 07:41:05;;;;;;;11.25;8.07;;;;;;;34.48;33.68;100410.44;5058694;28;20079;-87
2022/08/18 07:43:50;;;;;;;11.98;8.23;;;;;;;34.37;33.50;100400.75;5071950;28;20051;-86
2022/08/18 07:46:43;;;;;;;13.35;8.57;;;;;;;34.63;33.25;100410.00;5093084;28;20496;-87
2022/08/18 07:49:11;;;;;;;11.07;8.30;;;;;;;34.03;34.44;100405.13;5093679;28;20032;-87
2022/08/18 07:51:46;;;;;;;13.27;9.23;;;;;;;34.46;34.17;100407.16;5037502;28;20806;-87
2022/08/18 07:54:42;;;;;;;11.52;8.23;;;;;;;34.90;33.20;100399.59;5048366;28;20035;-88
2022/08/18 07:57:10;;;;;;;9.52;7.68;;;;;;;35.19;32.91;100403.66;5056570;28;20481;-86
2022/08/18 07:59:47;;;;;;;11.65;7.57;;;;;;;35.66;32.55;100407.31;5075729;28;20466;-86
2022/08/18 08:02:35;;;;;;;10.25;7.30;;;;;;;36.01;31.49;100397.88;5075487;28;20036;-87
2022/08/18 08:05:47;;;;;;;11.10;8.18;;;;;;;36.30;30.99;100389.47;5058284;28;20055;-87
2022/08/18 08:08:32;;;;;;;11.05;7.95;;;;;;;36.16;30.84;100371.34;5010846;28;20068;-87
2022/08/18 08:11:19;;;;;;;10.93;7.35;;;;;;;36.63;30.46;100390.72;5010078;28;20072;-88
2022/08/18 08:14:13;;;;;;;15.23;7.80;;;;;;;36.91;29.52;100386.16;5066987;28;20077;-87
2022/08/18 08:16:48;;;;;;;10.52;8.43;;;;;;;36.05;30.67;100387.66;5059732;28;20484;-88
2022/08/18 08:19:39;;;;;;;10.13;7.75;;;;;;;36.23;30.16;100388.41;5082203;28;20081;-87
2022/08/18 08:22:16;;;;;;;14.27;8.10;;;;;;;35.55;31.18;100385.63;5061464;28;20024;-88
2022/08/18 08:25:09;;;;;;;10.25;7.60;;;;;;;35.87;31.41;100385.00;5064289;28;20395;-87
2022/08/18 08:27:49;;;;;;;13.65;7.85;;;;;;;36.22;30.34;100393.19;5077306;28;20043;-88
2022/08/18 08:30:19;;;;;;;12.82;7.68;;;;;;;36.57;29.93;100370.47;5093366;28;20028;-88
2022/08/18 08:33:09;;;;;;;10.98;7.90;;;;;;;37.37;29.04;100386.16;5075302;28;20497;-88
2022/08/18 08:35:46;;;;;;;11.35;7.75;;;;;;;36.81;29.32;100374.56;5093207;28;20093;-88
2022/08/18 08:38:14;;;;;;;8.57;7.55;;;;;;;37.28;29.18;100379.84;5050939;28;20040;-87
2022/08/18 08:40:58;;;;;;;9.63;7.38;;;;;;;37.11;28.71;100376.09;5075391;28;20188;-87
2022/08/18 08:43:29;;;;;;;10.30;7.32;;;;;;;37.95;27.28;100386.84;5065629;28;20476;-88
2022/08/18 08:46:09;;;;;;;11.68;7.82;;;;;;;38.58;26.69;100388.38;5054516;28;20115;-87
2022/08/18 08:48:43;;;;;;;7.53;6.82;;;;;;;38.79;26.58;100385.38;5068877;28;20448;-88
2022/08/18 08:51:11;;;;;;;8.70;6.90;;;;;;;38.46;26.31;100380.00;5056971;28;20036;-87
2022/08/18 08:53:38;;;;;;;9.25;7.40;;;;;;;39.55;25.32;100380.59;5093315;28;20495;-89
2022/08/18 08:56:09;;;;;;;12.07;7.55;;;;;;;40.25;25.20;100379.00;5073734;28;20109;-85
2022/08/18 08:58:39;;;;;;;10.73;7.25;;;;;;;41.12;23.48;100376.78;5073979;28;20057;-86
2022/08/18 09:01:05;;;;;;;11.20;7.38;;;;;;;41.46;23.21;100379.75;5057661;28;20012;-86
2022/08/18 09:03:48;;;;;;;12.73;6.97;;;;;;;40.95;24.00;100380.03;5074849;28;20403;-85
2022/08/18 09:06:33;;;;;;;;;;;;;;;41.01;23.87;100384.19;5050806;28;20115;-85
2022/08/18 09:09:25;;;;;;;10.35;7.07;;;;;;;39.21;27.20;100380.09;5088969;28;19926;-85
2022/08/18 09:12:11;;;;;;;8.43;7.18;;;;;;;39.33;26.99;100382.00;5087929;28;20058;-85
2022/08/18 09:15:06;;;;;;;11.25;7.60;;;;;;;38.54;27.89;100379.03;5084580;28;20032;-86
2022/08/18 09:17:41;;;;;;;14.32;7.90;;;;;;;39.86;26.55;100384.56;5068743;28;20132;-85
2022/08/18 09:20:25;;;;;;;12.07;7.53;;;;;;;40.50;25.53;100362.63;5072588;28;20024;-86
2022/08/18 09:22:57;;;;;;;9.15;7.13;;;;;;;42.17;23.62;100363.94;5092366;28;20059;-89
2022/08/18 09:25:40;;;;;;;10.10;7.25;;;;;;;43.13;21.49;100376.72;5062115;28;20463;-88
2022/08/18 09:28:13;;;;;;;11.93;7.22;;;;;;;43.52;21.13;100367.78;5098702;28;20032;-89
2022/08/18 09:31:01;;;;;;;13.98;7.32;;;;;;;44.21;20.60;100372.72;5063116;28;20032;-88
2022/08/18 09:33:36;;;;;;;11.90;6.70;;;;;;;41.31;24.59;100378.69;5068673;28;20040;-84
2022/08/18 09:36:38;;;;;;;11.77;6.80;;;;;;;39.51;27.07;100379.69;5063122;28;20184;-85
2022/08/18 09:42:11;;;;;;;12.65;8.88;;;;;;;39.59;26.67;100377.84;5089217;28;20050;-86
2022/08/18 09:45:01;;;;;;;9.60;7.80;;;;;;;40.73;24.53;100371.19;5089338;28;20055;-86
2022/08/18 09:47:36;;;;;;;14.02;9.50;;;;;;;41.11;24.13;100363.81;5089159;28;20072;-90
2022/08/18 09:50:26;;;;;;;13.20;8.77;;;;;;;42.24;23.27;100368.03;5090533;28;20028;-87
2022/08/18 09:52:52;;;;;;;13.18;9.75;;;;;;;43.84;21.03;100363.19;5092250;28;20479;-87
2022/08/18 09:55:17;;;;;;;11.65;9.07;;;;;;;43.14;21.50;100364.22;5050893;28;20043;-89
2022/08/18 09:57:44;;;;;;;11.77;7.20;;;;;;;40.98;24.59;100362.38;5090333;28;20046;-83
2022/08/18 10:00:13;;;;;;;16.23;8.13;;;;;;;39.64;26.34;100367.16;5050734;28;20051;-84
2022/08/18 10:02:41;;;;;;;17.75;8.63;;;;;;;38.87;27.54;100375.13;5086682;28;20384;-84
2022/08/18 10:05:19;;;;;;;13.07;9.18;;;;;;;39.16;27.63;100368.31;5091619;28;20028;-84
2022/08/18 10:08:13;;;;;;;10.82;7.82;;;;;;;39.13;28.54;100380.31;5088169;28;20101;-86
2022/08/18 10:10:48;;;;;;;11.98;7.68;;;;;;;39.77;27.53;100370.66;5085472;28;20020;-80
2022/08/18 10:13:28;;;;;;;12.88;7.30;;;;;;;38.66;28.82;100353.72;5087664;28;20165;-82
2022/08/18 10:16:34;;;;;;;9.18;7.60;;;;;;;36.21;31.42;100371.94;5075437;28;20040;-85
2022/08/18 10:19:32;;;;;;;20.88;8.25;;;;;;;35.19;34.74;100372.94;5086640;28;20039;-82
2022/08/18 10:21:58;;;;;;;11.77;8.38;;;;;;;36.42;32.06;100376.72;5080901;28;20032;-81
2022/08/18 10:24:35;;;;;;;19.20;8.95;;;;;;;35.23;34.84;100371.94;5086029;28;20048;-81
2022/08/18 10:27:07;;;;;;;11.98;7.85;;;;;;;37.37;32.13;100358.13;5048385;28;20424;-81
2022/08/18 10:29:46;;;;;;;12.30;8.10;;;;;;;37.90;31.55;100335.78;5057725;28;20060;-85
2022/08/18 10:32:12;;;;;;;9.52;7.82;;;;;;;37.06;32.81;100370.69;5081699;28;20032;-87
2022/08/18 10:34:48;;;;;;;12.73;8.10;;;;;;;36.31;34.22;100357.53;5078602;28;20059;-83
2022/08/18 10:37:37;;;;;;;12.32;8.57;;;;;;;35.49;35.91;100359.81;5082091;28;20118;-84
2022/08/18 10:40:08;;;;;;;9.38;7.68;;;;;;;35.03;37.83;100376.25;5075413;28;20044;-84
2022/08/18 10:43:17;;;;;;;14.23;8.60;;;;;;;34.75;38.30;100375.00;5067521;28;20177;-85
2022/08/18 10:45:48;;;;;;;10.80;7.70;;;;;;;36.52;34.89;100365.09;5030246;28;20032;-82
2022/08/18 10:48:57;;;;;;;10.43;8.20;;;;;;;36.79;33.34;100362.91;5026342;28;20045;-83
2022/08/18 10:51:35;;;;;;;11.20;7.63;;;;;;;36.98;34.37;100369.59;5055940;28;20119;-82
2022/08/18 10:54:15;;;;;;;9.00;8.10;;;;;;;37.69;32.95;100369.59;5070375;28;20032;-82
2022/08/18 10:56:50;;;;;;;12.57;7.72;;;;;;;35.51;37.71;100375.09;5085988;28;20045;-83
2022/08/18 10:59:28;;;;;;;13.63;8.20;;;;;;;37.10;34.86;100377.25;5058466;28;20051;-82
2022/08/18 11:02:19;;;;;;;9.90;8.18;;;;;;;37.77;33.97;100360.25;5074281;28;20028;-83
2022/08/18 11:04:47;;;;;;;11.07;7.60;;;;;;;38.34;32.88;100378.84;5062760;28;20037;-84
2022/08/18 11:07:18;;;;;;;9.35;7.20;;;;;;;37.76;33.69;100364.22;5047984;28;20060;-80
2022/08/18 11:09:45;;;;;;;10.23;7.43;;;;;;;36.00;36.03;100362.69;5072099;28;20364;-82
2022/08/18 11:12:14;;;;;;;10.10;7.95;;;;;;;35.20;38.06;100360.63;5092375;28;20071;-83
2022/08/18 11:15:00;;;;;;;12.98;7.88;;;;;;;35.66;37.47;100379.34;5067057;28;20040;-82
2022/08/18 11:17:35;;;;;;;12.07;8.10;;;;;;;36.62;35.35;100377.88;5045723;28;20038;-81
2022/08/18 11:20:06;;;;;;;10.40;7.70;;;;;;;36.40;36.13;100370.63;5066837;28;20031;-80
2022/08/18 11:22:34;;;;;;;8.55;7.43;;;;;;;35.37;37.01;100359.72;5050669;28;20031;-82
2022/08/18 11:25:01;;;;;;;10.05;7.47;;;;;;;34.43;39.21;100357.59;5073219;28;20139;-80
2022/08/18 11:27:31;;;;;;;8.40;7.50;;;;;;;33.47;41.27;100345.41;5058662;28;20040;-82
2022/08/18 11:30:03;;;;;;;10.27;7.97;;;;;;;33.05;42.12;100350.47;5076316;28;20040;-81
2022/08/18 11:32:34;;;;;;;11.93;8.32;;;;;;;33.51;41.49;100369.53;5093439;28;20104;-81
2022/08/18 11:35:09;;;;;;;10.77;7.55;;;;;;;33.43;41.95;100348.88;5055603;28;20091;-80
2022/08/18 11:37:40;;;;;;;;;;;;;;;32.87;42.79;100361.47;5085761;28;20043;-85
2022/08/18 11:40:40;;;;;;;11.30;7.82;;;;;;;32.78;43.29;100360.63;5081247;28;19916;-84
2022/08/18 11:43:09;;;;;;;9.38;8.10;;;;;;;32.18;44.10;100361.75;5087324;28;20159;-84
2022/08/18 11:45:56;;;;;;;13.43;8.48;;;;;;;32.24;44.21;100368.00;5079777;28;20039;-85
2022/08/18 11:48:31;;;;;;;11.88;7.95;;;;;;;32.01;45.21;100369.91;5069168;28;20048;-85
2022/08/18 11:50:58;;;;;;;14.68;7.95;;;;;;;31.67;46.77;100360.88;5087851;28;20044;-84
2022/08/18 11:53:48;;;;;;;10.30;8.18;;;;;;;31.55;46.86;100368.91;5089799;28;20035;-82
2022/08/18 11:56:23;;;;;;;10.63;8.70;;;;;;;31.11;48.10;100371.09;5093319;28;20093;-83
2022/08/18 11:59:34;;;;;;;11.95;8.60;;;;;;;31.17;47.89;100369.06;5075097;28;20040;-83